Time;durP1;ratioP1;P1;durP2;ratioP2;P2;SDS_P1;SDS_P2;PMS_P1;PMS_P2;Temp;Humidity;BMP_temperature;BMP_pressure;BME280_temperature;BME280_humidity;BME280_pressure;Samples;Min_cycle;Max_cycle;Signal;HPM_P1;HPM_P2
2022/01/31 00:00:27;;;;;;;25.70;5.00;;;;;;;1.99;64.28;98133.87;2291922;78;21434;-83
2022/01/31 00:03:34;;;;;;;19.43;4.13;;;;;;;1.98;64.61;98138.14;2268772;78;21020;-82
2022/01/31 00:06:34;;;;;;;;;;;;;;;1.96;64.57;98135.05;2294639;78;20973;-82
2022/01/31 00:09:42;;;;;;;26.07;5.07;;;;;;;1.94;64.81;98140.56;2257707;78;20162;-83
2022/01/31 00:12:58;;;;;;;19.93;5.20;;;;;;;1.91;64.99;98128.46;2254814;78;20948;-83
2022/01/31 00:15:53;;;;;;;19.07;4.70;;;;;;;1.87;65.51;98140.34;2285616;78;20916;-83
2022/01/31 00:18:49;;;;;;;26.43;5.27;;;;;;;1.84;65.65;98144.52;2268943;78;21342;-83
2022/01/31 00:21:53;;;;;;;18.77;4.40;;;;;;;1.81;65.40;98159.44;2291506;78;21044;-83
2022/01/31 00:24:57;;;;;;;18.95;5.25;;;;;;;1.80;65.83;98146.11;2290138;77;21007;-82
2022/01/31 00:27:59;;;;;;;20.50;4.97;;;;;;;1.80;65.87;98145.23;2269240;78;20939;-83
2022/01/31 00:34:04;;;;;;;22.63;4.93;;;;;;;1.73;66.63;98149.25;2269467;78;20940;-82
2022/01/31 00:40:07;;;;;;;31.33;5.43;;;;;;;1.71;66.59;98154.76;2269613;78;20980;-83
2022/01/31 00:43:12;;;;;;;22.27;5.37;;;;;;;1.71;67.27;98161.60;2291939;78;21051;-83
2022/01/31 00:49:35;;;;;;;17.65;4.28;;;;;;;1.68;67.38;98162.37;2269292;78;21023;-82
2022/01/31 00:52:29;;;;;;;24.77;6.17;;;;;;;1.66;67.37;98161.44;2289495;77;21464;-83
2022/01/31 00:55:36;;;;;;;28.83;5.83;;;;;;;1.64;67.62;98165.66;2291582;78;21027;-83
2022/01/31 00:58:36;;;;;;;23.47;5.67;;;;;;;1.83;79.12;98178.80;2285986;78;20954;-83
2022/01/31 01:01:37;;;;;;;21.27;4.57;;;;;;;4.38;73.72;98172.90;2282015;77;20984;-82
2022/01/31 01:04:37;;;;;;;26.30;5.07;;;;;;;5.34;72.48;98167.84;2281877;77;21012;-83
2022/01/31 01:07:38;;;;;;;20.43;5.20;;;;;;;5.28;58.72;98165.13;2281439;77;20976;-82
2022/01/31 01:10:39;;;;;;;25.20;4.67;;;;;;;3.87;60.33;98168.92;2281652;77;21013;-82
2022/01/31 01:13:40;;;;;;;18.70;4.57;;;;;;;3.07;62.11;98175.62;2282180;77;21303;-82
2022/01/31 01:16:40;;;;;;;21.97;5.40;;;;;;;2.59;63.48;98177.92;2282325;78;21297;-83
2022/01/31 01:19:41;;;;;;;20.00;3.93;;;;;;;2.28;64.42;98192.37;2282371;77;21290;-83
2022/01/31 01:22:42;;;;;;;17.97;4.50;;;;;;;2.07;64.78;98185.20;2281383;78;20934;-82
2022/01/31 01:25:43;;;;;;;22.63;5.30;;;;;;;1.93;64.96;98182.56;2282402;77;21357;-82
2022/01/31 01:28:45;;;;;;;23.43;4.53;;;;;;;1.80;65.03;98178.27;2282211;78;20915;-82
2022/01/31 01:31:47;;;;;;;17.23;4.43;;;;;;;1.73;65.94;98191.71;2281096;78;20930;-81
2022/01/31 01:34:47;;;;;;;21.03;4.67;;;;;;;1.68;65.95;98189.38;2281723;77;21032;-81
2022/01/31 01:37:48;;;;;;;19.50;4.20;;;;;;;1.64;66.02;98192.66;2282105;77;20977;-82
2022/01/31 01:40:50;;;;;;;19.37;4.80;;;;;;;1.61;66.05;98195.13;2282136;77;20929;-83
2022/01/31 01:43:50;;;;;;;19.97;4.90;;;;;;;1.58;66.23;98199.75;2282089;77;21371;-82
2022/01/31 01:46:54;;;;;;;20.90;4.83;;;;;;;1.55;66.54;98201.33;2282438;77;20883;-82
2022/01/31 01:49:53;;;;;;;16.17;4.17;;;;;;;1.54;66.20;98204.73;2281882;78;21325;-83
2022/01/31 01:52:55;;;;;;;22.37;4.30;;;;;;;1.53;66.49;98215.84;2261502;78;20939;-82
2022/01/31 01:59:04;;;;;;;18.10;4.10;;;;;;;1.45;66.38;98201.81;2239537;78;21043;-82
2022/01/31 02:02:00;;;;;;;15.30;3.87;;;;;;;1.42;66.15;98209.01;2249527;79;21415;-82
2022/01/31 02:05:01;;;;;;;18.73;4.53;;;;;;;1.40;66.27;98198.20;2249869;78;20976;-83
2022/01/31 02:08:03;;;;;;;25.27;4.63;;;;;;;1.38;66.63;98181.84;2250233;78;20959;-83
2022/01/31 02:11:04;;;;;;;21.83;4.60;;;;;;;1.38;66.30;98180.55;2250103;79;21355;-82
2022/01/31 02:14:04;;;;;;;22.13;4.37;;;;;;;1.37;66.77;98171.95;2250139;78;20991;-82
2022/01/31 02:17:05;;;;;;;18.40;4.60;;;;;;;1.33;66.83;98153.79;2249799;79;20916;-82
2022/01/31 02:20:05;;;;;;;17.50;4.53;;;;;;;1.31;67.12;98144.73;2249946;78;20944;-82
2022/01/31 02:23:07;;;;;;;22.20;4.40;;;;;;;1.27;67.31;98151.45;2227670;79;21020;-82
2022/01/31 02:26:08;;;;;;;14.27;3.47;;;;;;;1.24;67.29;98148.78;2250026;78;20955;-81
2022/01/31 02:29:11;;;;;;;22.67;4.33;;;;;;;1.51;71.56;98145.05;2250358;78;21011;-82
2022/01/31 02:32:13;;;;;;;15.87;3.80;;;;;;;2.10;70.80;98140.25;2250278;79;21399;-82
2022/01/31 02:35:13;;;;;;;19.70;4.73;;;;;;;2.30;66.10;98131.48;2250048;79;20979;-82
2022/01/31 02:38:14;;;;;;;18.07;4.77;;;;;;;2.01;65.49;98132.22;2250010;78;20944;-83
2022/01/31 02:44:17;;;;;;;21.87;4.00;;;;;;;1.57;66.37;98130.23;2227849;79;20988;-83
2022/01/31 02:47:26;;;;;;;23.00;4.57;;;;;;;1.47;66.47;98132.02;2250066;78;20948;-83
2022/01/31 02:50:26;;;;;;;17.30;3.90;;;;;;;1.38;66.23;98135.14;2249701;79;20955;-83
2022/01/31 02:53:29;;;;;;;16.80;3.70;;;;;;;1.33;66.49;98140.52;2249509;79;20964;-82
2022/01/31 02:56:30;;;;;;;14.85;3.45;;;;;;;2.07;68.92;98125.58;2227587;79;20988;-82
2022/01/31 03:02:33;;;;;;;8.83;3.00;;;;;;;1.60;65.69;98126.08;2227515;79;21375;-84
2022/01/31 03:05:33;;;;;;;15.57;3.63;;;;;;;1.38;65.77;98129.12;2249547;78;21003;-83
2022/01/31 03:08:36;;;;;;;14.83;4.00;;;;;;;1.23;66.25;98126.45;2227677;79;21023;-83
2022/01/31 03:11:38;;;;;;;20.60;3.87;;;;;;;1.13;66.53;98115.78;2227692;79;20959;-83
2022/01/31 03:14:40;;;;;;;25.93;4.60;;;;;;;1.04;67.15;98114.16;2249921;78;20975;-79
2022/01/31 03:17:46;;;;;;;16.60;3.47;;;;;;;0.93;67.69;98116.33;2249799;79;21000;-83
2022/01/31 03:23:50;;;;;;;18.17;3.92;;;;;;;0.73;68.62;98114.66;2227280;79;21470;-82
2022/01/31 03:26:50;;;;;;;23.93;4.07;;;;;;;0.66;68.82;98099.83;2249045;78;20951;-82
2022/01/31 03:32:54;;;;;;;25.10;5.23;;;;;;;0.61;69.60;98091.53;2216514;80;21354;-84
2022/01/31 03:35:56;;;;;;;18.57;3.77;;;;;;;0.63;69.85;98089.91;2209714;80;21026;-82
2022/01/31 03:38:56;;;;;;;20.20;4.87;;;;;;;0.66;69.77;98085.30;2244429;79;21247;-84
2022/01/31 03:41:59;;;;;;;23.80;4.47;;;;;;;0.68;69.73;98083.66;2248401;77;21074;-83
2022/01/31 03:45:01;;;;;;;22.40;4.50;;;;;;;0.71;69.92;98081.61;2222667;79;20932;-83
2022/01/31 03:48:05;;;;;;;28.10;5.30;;;;;;;0.73;69.62;98085.12;2249807;79;20928;-82
2022/01/31 03:51:04;;;;;;;18.07;5.47;;;;;;;0.73;69.21;98081.27;2249111;79;21027;-82
2022/01/31 03:54:05;;;;;;;22.70;4.73;;;;;;;0.75;69.07;98083.48;2248892;78;21443;-82
2022/01/31 03:57:06;;;;;;;14.53;3.60;;;;;;;0.76;68.69;98074.95;2216321;79;21386;-82
2022/01/31 04:00:07;;;;;;;18.07;3.80;;;;;;;0.75;68.40;98074.49;2274709;77;20954;-81
2022/01/31 04:03:10;;;;;;;18.50;4.50;;;;;;;0.74;68.22;98068.89;2281855;77;20966;-81
2022/01/31 04:06:10;;;;;;;22.53;4.27;;;;;;;0.74;68.59;98063.75;2281757;77;21037;-81
2022/01/31 04:09:11;;;;;;;23.37;4.23;;;;;;;0.72;68.33;98056.39;2281726;77;21278;-81
2022/01/31 04:12:12;;;;;;;21.77;4.40;;;;;;;0.72;68.73;98061.53;2281517;77;20932;-81
2022/01/31 04:15:12;;;;;;;25.40;4.70;;;;;;;0.73;68.94;98054.30;2281705;77;20919;-81
2022/01/31 04:18:13;;;;;;;18.47;4.17;;;;;;;0.74;68.70;98046.64;2281500;78;20903;-81
2022/01/31 04:21:14;;;;;;;23.53;5.13;;;;;;;0.74;69.15;98041.91;2281709;77;20917;-81
2022/01/31 04:24:21;;;;;;;24.53;5.77;;;;;;;0.74;68.85;98044.48;2281562;77;21327;-81
2022/01/31 04:30:19;;;;;;;26.53;5.17;;;;;;;0.77;69.01;98048.04;2260775;78;20994;-81
2022/01/31 04:33:19;;;;;;;26.87;5.77;;;;;;;0.80;69.14;98042.14;2281241;77;20935;-82
2022/01/31 04:36:20;;;;;;;27.90;6.07;;;;;;;0.80;68.91;98042.14;2268300;77;21370;-81
2022/01/31 04:39:20;;;;;;;33.30;6.37;;;;;;;0.78;69.16;98043.78;2274514;78;20918;-82
2022/01/31 04:42:24;;;;;;;21.70;5.80;;;;;;;0.77;68.92;98035.20;2281645;78;20985;-82
2022/01/31 04:45:26;;;;;;;21.17;4.40;;;;;;;0.76;68.92;98030.00;2281350;78;21100;-80
2022/01/31 04:48:27;;;;;;;26.50;4.63;;;;;;;0.75;68.63;98034.67;2279626;77;20977;-82
2022/01/31 04:54:34;;;;;;;26.30;5.17;;;;;;;0.70;68.99;98032.34;2257936;78;21054;-82
2022/01/31 04:57:35;;;;;;;23.57;5.57;;;;;;;0.68;69.11;98028.84;2279786;78;21222;-83
2022/01/31 05:03:41;;;;;;;25.93;3.70;;;;;;;0.64;69.24;98021.02;2266892;78;20995;-82
2022/01/31 05:06:49;;;;;;;15.33;3.63;;;;;;;0.64;68.87;98024.00;2254805;78;21038;-82
2022/01/31 05:19:03;;;;;;;29.60;5.93;;;;;;;0.63;69.22;98021.84;2259837;78;20971;-83
2022/01/31 05:22:06;;;;;;;24.13;5.90;;;;;;;0.66;69.07;98016.36;2289277;77;21059;-83
2022/01/31 05:25:07;;;;;;;31.03;6.50;;;;;;;0.64;68.94;98007.31;2288516;78;21453;-83
2022/01/31 05:31:15;;;;;;;25.67;4.83;;;;;;;0.63;69.40;98000.42;2265676;78;20979;-82
2022/01/31 05:34:17;;;;;;;25.25;4.92;;;;;;;0.62;69.31;98007.25;2265309;78;21117;-83
2022/01/31 05:37:17;;;;;;;24.47;5.67;;;;;;;0.62;69.72;97982.85;2264992;78;20948;-83
2022/01/31 05:40:24;;;;;;;27.73;6.17;;;;;;;0.60;69.59;97980.64;2288972;78;20940;-82
2022/01/31 05:43:28;;;;;;;27.27;5.50;;;;;;;0.60;69.91;97970.77;2266256;78;21018;-83
2022/01/31 05:46:28;;;;;;;33.53;5.83;;;;;;;0.59;69.80;97976.32;2289175;78;20998;-82
2022/01/31 05:49:29;;;;;;;26.57;6.23;;;;;;;0.59;69.69;97972.87;2289310;78;20916;-81
2022/01/31 05:52:29;;;;;;;29.60;5.80;;;;;;;0.56;69.99;97968.50;2289971;78;20944;-80
2022/01/31 05:55:30;;;;;;;34.63;5.53;;;;;;;0.52;69.97;97964.08;2290356;78;20960;-81
2022/01/31 05:58:30;;;;;;;21.37;5.27;;;;;;;0.49;70.13;97957.55;2286495;78;21408;-81
2022/01/31 06:01:31;;;;;;;34.60;6.37;;;;;;;0.48;70.34;97954.51;2278410;77;21008;-80
2022/01/31 06:04:31;;;;;;;27.63;7.50;;;;;;;0.46;70.41;97952.30;2278030;77;20941;-80
2022/01/31 06:07:32;;;;;;;57.13;13.10;;;;;;;0.46;70.53;97940.73;2277565;77;21033;-82
2022/01/31 06:10:34;;;;;;;44.17;12.20;;;;;;;0.47;70.54;97933.50;2278416;78;21349;-84
2022/01/31 06:13:34;;;;;;;49.33;10.93;;;;;;;0.49;70.80;97934.44;2279660;78;20997;-84
2022/01/31 06:16:35;;;;;;;41.63;10.47;;;;;;;0.51;70.92;97934.08;2279603;78;21008;-83
2022/01/31 06:22:38;;;;;;;41.53;10.27;;;;;;;0.52;71.00;97938.39;2172390;82;21201;-83
2022/01/31 06:25:38;;;;;;;36.33;9.10;;;;;;;0.50;71.18;97950.30;2172180;82;21002;-84
2022/01/31 06:28:39;;;;;;;40.60;11.77;;;;;;;0.45;71.23;97946.69;2174032;82;21112;-82
2022/01/31 06:31:39;;;;;;;45.63;14.30;;;;;;;0.43;71.46;97953.88;2173855;82;21501;-81
2022/01/31 06:34:40;;;;;;;52.90;14.83;;;;;;;0.41;71.61;97953.81;2173323;82;20948;-81
2022/01/31 06:37:40;;;;;;;52.80;14.40;;;;;;;0.42;71.68;97950.43;2171964;82;21474;-81
2022/01/31 06:40:41;;;;;;;41.07;10.67;;;;;;;0.42;71.81;97954.69;2172118;82;21018;-82
2022/01/31 06:43:41;;;;;;;40.87;13.87;;;;;;;0.42;71.85;97946.58;2171851;82;21019;-82
2022/01/31 06:46:42;;;;;;;65.63;16.70;;;;;;;0.44;71.87;97944.94;2172254;82;21015;-81
2022/01/31 06:49:43;;;;;;;96.87;26.53;;;;;;;0.44;71.76;97946.23;2171783;82;21023;-82
2022/01/31 06:52:44;;;;;;;103.20;27.83;;;;;;;0.46;71.76;97945.00;2172515;82;20986;-81
2022/01/31 06:55:44;;;;;;;78.83;21.47;;;;;;;0.51;71.59;97939.62;2173027;82;20979;-81
2022/01/31 06:58:45;;;;;;;48.37;13.00;;;;;;;0.53;71.53;97945.28;2171206;82;21058;-81
2022/01/31 07:01:45;;;;;;;39.03;10.57;;;;;;;0.54;71.59;97938.04;2162846;82;20951;-81
2022/01/31 07:04:46;;;;;;;35.60;11.73;;;;;;;0.56;71.33;97937.69;2162938;82;20966;-82
2022/01/31 07:10:52;;;;;;;35.17;12.27;;;;;;;0.59;71.16;97925.36;2138216;82;21004;-82
2022/01/31 07:14:05;;;;;;;61.67;17.43;;;;;;;0.60;71.05;97921.56;2162850;82;21641;-82
2022/01/31 07:17:04;;;;;;;42.77;13.07;;;;;;;0.64;70.98;97923.84;2161873;82;21003;-83
2022/01/31 07:20:05;;;;;;;39.47;11.43;;;;;;;0.68;70.78;97918.40;2225096;79;20976;-83
2022/01/31 07:23:14;;;;;;;37.77;9.77;;;;;;;0.72;70.87;97920.25;2240883;79;21251;-82
2022/01/31 07:26:08;;;;;;;33.97;10.77;;;;;;;0.78;70.65;97914.05;2239075;79;20985;-82
2022/01/31 07:29:08;;;;;;;28.67;9.47;;;;;;;0.80;70.57;97914.56;2240454;79;21459;-82
2022/01/31 07:32:10;;;;;;;34.70;10.80;;;;;;;0.86;70.28;97916.48;2241192;79;21044;-82
2022/01/31 07:35:14;;;;;;;32.17;11.40;;;;;;;0.89;70.18;97916.61;2241503;79;21064;-83
2022/01/31 07:38:15;;;;;;;25.27;7.78;;;;;;;0.89;70.22;97907.21;2241944;79;21056;-81
2022/01/31 07:41:15;;;;;;;41.57;11.33;;;;;;;0.93;70.07;97904.34;2241516;79;21298;-81
2022/01/31 07:44:16;;;;;;;51.43;15.87;;;;;;;0.95;70.07;97903.98;2241196;79;20958;-83
2022/01/31 07:47:17;;;;;;;51.23;17.23;;;;;;;1.01;69.97;97895.60;2240965;79;21219;-81
2022/01/31 07:50:18;;;;;;;54.23;16.77;;;;;;;1.09;69.75;97886.45;2242406;79;20938;-81
2022/01/31 07:53:19;;;;;;;35.23;12.97;;;;;;;1.13;69.63;97887.02;2242372;79;21051;-82
2022/01/31 07:56:20;;;;;;;33.23;10.10;;;;;;;1.18;69.04;97885.47;2241411;79;20953;-83
2022/01/31 07:59:21;;;;;;;42.73;9.20;;;;;;;1.23;69.14;97882.64;2254123;78;21511;-82
2022/01/31 08:02:21;;;;;;;45.43;8.77;;;;;;;1.30;69.29;97874.72;2278799;77;21005;-82
2022/01/31 08:05:22;;;;;;;29.43;7.73;;;;;;;1.32;69.05;97870.50;2278715;77;22017;-82
2022/01/31 08:08:23;;;;;;;27.17;8.03;;;;;;;1.34;68.83;97867.16;2278228;77;21005;-83
2022/01/31 08:11:30;;;;;;;32.80;8.33;;;;;;;1.41;68.93;97860.09;2278626;77;20993;-81
2022/01/31 08:14:27;;;;;;;34.40;8.90;;;;;;;1.47;68.67;97859.41;2277856;77;21014;-82
2022/01/31 08:17:28;;;;;;;36.20;8.67;;;;;;;1.52;68.39;97845.88;2279435;78;20989;-81
2022/01/31 08:20:28;;;;;;;46.07;12.77;;;;;;;1.56;68.19;97842.57;2279621;77;21742;-81
2022/01/31 08:23:29;;;;;;;40.63;11.13;;;;;;;1.65;68.52;97841.98;2280052;78;20958;-82
2022/01/31 08:26:29;;;;;;;46.00;13.33;;;;;;;1.75;68.45;97837.61;2279577;78;20953;-82
2022/01/31 08:29:34;;;;;;;37.93;11.03;;;;;;;1.85;68.34;97833.19;2280757;78;20938;-81
2022/01/31 08:32:43;;;;;;;42.90;13.57;;;;;;;1.96;68.27;97833.50;2279210;78;21033;-81
2022/01/31 08:35:50;;;;;;;37.63;11.50;;;;;;;2.02;67.86;97826.38;2277976;78;21004;-81
2022/01/31 08:38:51;;;;;;;49.80;11.90;;;;;;;2.05;67.79;97820.03;2278829;78;21017;-80
2022/01/31 08:41:51;;;;;;;41.30;10.30;;;;;;;2.06;67.90;97821.77;2278458;78;20985;-82
2022/01/31 08:44:52;;;;;;;40.27;10.70;;;;;;;2.10;68.05;97812.02;2278048;78;21118;-82
2022/01/31 08:47:53;;;;;;;49.67;12.57;;;;;;;2.14;67.81;97804.84;2278396;78;20928;-82
2022/01/31 08:50:53;;;;;;;33.03;9.43;;;;;;;2.23;68.08;97811.53;2278590;78;21579;-81
2022/01/31 08:53:54;;;;;;;35.83;10.17;;;;;;;2.26;67.67;97816.77;2278096;77;21442;-81
2022/01/31 08:56:54;;;;;;;33.43;10.53;;;;;;;2.30;67.98;97810.88;2279238;78;20902;-82
2022/01/31 08:59:56;;;;;;;45.53;12.47;;;;;;;2.37;67.61;97802.91;2283516;78;21007;-81
2022/01/31 09:03:06;;;;;;;42.30;12.57;;;;;;;2.55;68.86;97798.23;2289269;78;20995;-82
2022/01/31 09:06:02;;;;;;;44.27;13.07;;;;;;;2.72;68.01;97795.72;2288580;77;21015;-82
2022/01/31 09:09:02;;;;;;;45.57;12.17;;;;;;;2.76;67.23;97796.67;2289205;78;22077;-81
2022/01/31 09:12:05;;;;;;;35.17;8.70;;;;;;;2.77;66.92;97785.11;2289041;78;21334;-83
2022/01/31 09:15:07;;;;;;;45.90;10.93;;;;;;;2.75;66.94;97779.47;2288507;78;21077;-81
2022/01/31 09:18:10;;;;;;;36.80;10.60;;;;;;;2.76;66.72;97776.92;2288765;78;21023;-81
2022/01/31 09:21:11;;;;;;;46.83;12.73;;;;;;;2.79;66.82;97770.56;2288848;78;21433;-81
2022/01/31 09:24:11;;;;;;;41.90;12.67;;;;;;;2.84;66.64;97775.41;2289670;78;21041;-82
2022/01/31 09:27:12;;;;;;;51.97;12.00;;;;;;;2.88;66.88;97760.89;2289720;78;20990;-82
2022/01/31 09:30:14;;;;;;;50.77;11.67;;;;;;;2.91;66.29;97763.55;2288988;78;21007;-83
2022/01/31 09:33:14;;;;;;;32.20;9.33;;;;;;;2.87;66.40;97764.30;2288538;78;21066;-82
2022/01/31 09:36:15;;;;;;;49.67;15.20;;;;;;;2.93;66.12;97759.30;2288233;78;20983;-82
2022/01/31 09:39:16;;;;;;;49.03;11.53;;;;;;;2.96;66.56;97761.08;2289124;78;20979;-81
2022/01/31 09:42:26;;;;;;;34.50;10.73;;;;;;;2.98;66.13;97758.13;2289781;78;21025;-81
2022/01/31 09:45:35;;;;;;;48.97;12.93;;;;;;;2.97;65.86;97752.52;2288214;78;20979;-81
2022/01/31 09:48:32;;;;;;;48.80;12.17;;;;;;;2.95;66.23;97746.03;2286858;78;21038;-82
2022/01/31 09:51:33;;;;;;;42.57;11.53;;;;;;;3.03;66.07;97733.33;2290179;78;21050;-82
2022/01/31 09:54:34;;;;;;;37.00;11.13;;;;;;;3.06;66.02;97729.11;2290679;78;20971;-81
2022/01/31 09:57:34;;;;;;;38.37;10.30;;;;;;;3.11;65.77;97736.53;2289859;78;21308;-81
2022/01/31 10:00:34;;;;;;;41.93;10.23;;;;;;;3.19;65.12;97719.53;2283776;78;20974;-82
2022/01/31 10:03:35;;;;;;;39.23;10.13;;;;;;;3.24;65.38;97718.77;2279746;78;20985;-81
2022/01/31 10:06:35;;;;;;;32.17;11.67;;;;;;;3.34;64.85;97706.52;2280292;78;20937;-81
2022/01/31 10:09:36;;;;;;;34.70;9.80;;;;;;;3.34;64.43;97700.08;2280657;78;20942;-82
2022/01/31 10:19:16;;;;;;;35.17;9.63;;;;;;;3.26;64.65;97688.72;2279456;78;20978;-82
2022/01/31 10:22:17;;;;;;;40.97;10.90;;;;;;;3.30;64.50;97691.81;2279025;77;21032;-80
2022/01/31 10:25:17;;;;;;;38.63;10.07;;;;;;;3.36;65.33;97688.95;2279748;78;20981;-81
2022/01/31 10:28:19;;;;;;;35.70;9.43;;;;;;;3.39;65.03;97689.44;2279964;78;20988;-82
2022/01/31 10:31:20;;;;;;;31.87;8.00;;;;;;;3.36;64.32;97685.08;2278872;77;20962;-81
2022/01/31 10:34:25;;;;;;;40.53;10.23;;;;;;;3.25;64.03;97675.38;2278665;77;21017;-81
2022/01/31 10:37:26;;;;;;;43.37;11.97;;;;;;;3.28;64.58;97673.73;2278748;78;21472;-80
2022/01/31 10:44:23;;;;;;;37.23;9.47;;;;;;;3.34;64.58;97683.30;2279292;77;21013;-80
2022/01/31 10:53:18;;;;;;;38.17;10.37;;;;;;;3.28;64.44;97679.31;2280082;78;21031;-81
2022/01/31 10:56:19;;;;;;;34.17;10.20;;;;;;;3.34;64.57;97677.73;2280112;78;20953;-80
2022/01/31 10:59:19;;;;;;;41.37;10.87;;;;;;;3.39;64.20;97678.70;2279177;78;20965;-81
2022/01/31 11:02:22;;;;;;;37.37;9.30;;;;;;;3.34;64.58;97673.86;2257143;78;21284;-80
2022/01/31 11:05:23;;;;;;;33.70;8.70;;;;;;;3.33;65.00;97669.96;2278803;77;20922;-81
2022/01/31 11:08:23;;;;;;;39.53;11.13;;;;;;;3.35;65.16;97678.19;2280771;77;21694;-82
2022/01/31 11:11:24;;;;;;;32.63;10.63;;;;;;;3.38;64.99;97667.06;2280042;78;20941;-81
2022/01/31 11:14:26;;;;;;;46.20;11.43;;;;;;;3.33;64.12;97660.52;2279502;78;21648;-80
2022/01/31 11:17:29;;;;;;;45.48;9.58;;;;;;;3.28;65.08;97656.09;2279775;78;21024;-81
2022/01/31 11:20:29;;;;;;;35.47;7.37;;;;;;;3.32;65.27;97652.74;2280434;77;20945;-81
2022/01/31 11:23:32;;;;;;;33.40;9.27;;;;;;;4.18;69.25;97655.31;2280113;77;21001;-82
2022/01/31 11:26:32;;;;;;;41.53;10.57;;;;;;;4.21;64.37;97645.03;2279493;78;21021;-80
2022/01/31 11:29:33;;;;;;;33.77;8.27;;;;;;;3.99;64.32;97647.66;2280245;78;21017;-79
2022/01/31 11:32:33;;;;;;;43.87;9.23;;;;;;;3.86;63.94;97650.84;2280902;77;20938;-82
2022/01/31 11:35:34;;;;;;;42.83;10.07;;;;;;;3.75;64.58;97641.19;2280081;77;20937;-80
2022/01/31 11:38:34;;;;;;;35.97;9.73;;;;;;;3.70;63.89;97644.10;2279534;78;21395;-81
2022/01/31 11:41:35;;;;;;;39.03;9.77;;;;;;;3.59;64.58;97640.44;2280218;78;20941;-80
2022/01/31 11:44:35;;;;;;;43.83;10.07;;;;;;;3.45;64.11;97640.55;2280237;77;20946;-80
2022/01/31 11:47:35;;;;;;;40.33;11.67;;;;;;;3.24;64.30;97640.11;2279373;78;20945;-80
2022/01/31 11:50:36;;;;;;;48.83;13.50;;;;;;;3.12;65.03;97645.87;2279759;78;20953;-79
2022/01/31 11:53:36;;;;;;;53.70;17.57;;;;;;;3.08;65.54;97642.36;2280503;78;20922;-81
2022/01/31 11:56:37;;;;;;;58.70;18.47;;;;;;;3.05;65.81;97646.16;2279428;78;20945;-81
2022/01/31 11:59:37;;;;;;;46.53;14.07;;;;;;;3.03;66.02;97636.65;2277968;78;20996;-80
2022/01/31 12:02:38;;;;;;;43.53;13.83;;;;;;;2.99;66.27;97636.13;2247912;79;20956;-80
2022/01/31 12:05:38;;;;;;;43.33;11.77;;;;;;;2.95;66.59;97630.03;2247182;79;20979;-81
2022/01/31 12:08:41;;;;;;;48.20;10.57;;;;;;;2.90;66.97;97625.20;2246539;79;21594;-81
2022/01/31 12:11:41;;;;;;;49.23;10.00;;;;;;;2.88;67.33;97631.61;2247368;79;21015;-80
2022/01/31 12:14:52;;;;;;;39.00;8.50;;;;;;;2.83;67.80;97624.61;2247129;79;20918;-80
2022/01/31 12:18:21;;;;;;;45.43;10.83;;;;;;;2.85;67.95;97617.78;2245422;79;20932;-79
2022/01/31 12:24:23;;;;;;;56.73;13.60;;;;;;;2.93;67.76;97616.24;2247709;78;21407;-81
2022/01/31 12:27:24;;;;;;;49.90;13.10;;;;;;;2.93;67.63;97614.95;2247786;78;20951;-78
2022/01/31 12:30:24;;;;;;;56.13;14.30;;;;;;;2.87;67.66;97612.24;2246906;79;20979;-80
2022/01/31 12:33:25;;;;;;;46.50;13.07;;;;;;;2.85;68.11;97610.92;2246787;79;21366;-78
2022/01/31 12:36:25;;;;;;;46.73;12.47;;;;;;;2.85;68.22;97612.20;2244627;79;21334;-78
2022/01/31 12:39:26;;;;;;;45.27;12.60;;;;;;;2.82;68.10;97613.42;2245283;79;21085;-79
2022/01/31 12:42:42;;;;;;;47.63;11.17;;;;;;;2.79;68.29;97603.47;2247100;79;21045;-79
2022/01/31 12:45:32;;;;;;;41.97;10.80;;;;;;;2.81;68.40;97601.38;2245494;76;20948;-79
2022/01/31 12:48:32;;;;;;;57.23;13.33;;;;;;;2.84;68.49;97603.16;2247367;79;20991;-80
2022/01/31 12:51:33;;;;;;;32.60;9.70;;;;;;;2.83;68.32;97598.84;2247786;78;20987;-80
2022/01/31 12:54:34;;;;;;;52.67;13.10;;;;;;;2.83;68.56;97600.99;2247219;78;21410;-80
2022/01/31 12:57:34;;;;;;;34.20;9.43;;;;;;;2.81;68.74;97603.95;2247314;78;21600;-79
2022/01/31 13:00:38;;;;;;;43.07;10.63;;;;;;;2.79;68.66;97599.60;2255121;77;21079;-79
2022/01/31 13:03:37;;;;;;;28.07;8.20;;;;;;;2.71;69.13;97601.14;2277295;78;20989;-79
2022/01/31 13:06:37;;;;;;;43.87;12.03;;;;;;;2.68;70.33;97598.49;2279197;77;21301;-84
2022/01/31 13:09:38;;;;;;;45.13;12.33;;;;;;;2.62;70.90;97599.64;2281032;78;21024;-83
2022/01/31 13:12:39;;;;;;;44.87;10.53;;;;;;;2.60;71.35;97599.98;2280638;78;21994;-83
2022/01/31 13:15:39;;;;;;;33.57;10.47;;;;;;;2.51;71.92;97595.08;2280953;78;20965;-83
2022/01/31 13:18:40;;;;;;;40.77;11.73;;;;;;;2.51;72.30;97596.78;2280497;78;20973;-84
2022/01/31 13:21:43;;;;;;;44.70;11.27;;;;;;;2.53;72.56;97593.41;2280421;78;20973;-85
2022/01/31 13:24:44;;;;;;;40.43;11.23;;;;;;;2.52;72.49;97594.24;2280436;78;20953;-81
2022/01/31 13:27:46;;;;;;;42.87;12.10;;;;;;;2.48;72.59;97596.71;2280054;78;20946;-84
2022/01/31 13:30:47;;;;;;;37.50;10.50;;;;;;;2.45;72.96;97594.94;2280058;78;21200;-84
2022/01/31 13:33:47;;;;;;;50.93;11.80;;;;;;;2.38;72.91;97595.62;2280023;78;21253;-84
2022/01/31 13:36:48;;;;;;;59.43;17.13;;;;;;;2.34;72.97;97584.80;2278813;78;20969;-83
2022/01/31 13:39:48;;;;;;;47.90;16.13;;;;;;;2.27;73.13;97586.77;2280407;78;21032;-84
2022/01/31 13:42:48;;;;;;;71.30;22.27;;;;;;;2.19;73.39;97585.30;2260484;78;21012;-84
2022/01/31 13:49:12;;;;;;;53.87;16.83;;;;;;;2.20;73.83;97582.31;2260406;78;20915;-84
2022/01/31 13:52:03;;;;;;;57.53;17.73;;;;;;;2.19;74.04;97584.43;2279159;77;20946;-85
2022/01/31 13:55:03;;;;;;;66.90;20.37;;;;;;;2.18;74.17;97579.70;2282203;78;20977;-84
2022/01/31 13:58:04;;;;;;;62.00;17.60;;;;;;;2.14;74.55;97584.73;2281782;78;20946;-82
2022/01/31 14:01:05;;;;;;;73.07;20.43;;;;;;;2.09;74.60;97585.04;2269194;77;21269;-86
2022/01/31 14:04:07;;;;;;;55.53;16.17;;;;;;;2.06;74.74;97584.97;2225235;79;21300;-85
2022/01/31 14:07:08;;;;;;;70.43;25.13;;;;;;;2.07;74.88;97578.56;2247617;78;20987;-86
2022/01/31 14:10:08;;;;;;;50.47;15.87;;;;;;;2.07;75.03;97581.14;2246322;79;21018;-83
2022/01/31 14:13:09;;;;;;;60.87;17.03;;;;;;;2.02;75.28;97583.14;2246448;79;21401;-83
2022/01/31 14:16:09;;;;;;;47.67;14.20;;;;;;;1.97;75.33;97580.45;2246940;78;20988;-84
2022/01/31 14:19:10;;;;;;;43.07;11.80;;;;;;;1.90;75.63;97578.14;2247744;78;20971;-85
2022/01/31 14:22:10;;;;;;;45.57;10.77;;;;;;;1.82;75.68;97573.64;2246898;79;20979;-85
2022/01/31 14:25:11;;;;;;;44.07;11.30;;;;;;;1.78;76.15;97576.55;2247051;79;20987;-84
2022/01/31 14:28:13;;;;;;;53.47;14.07;;;;;;;1.75;76.02;97575.59;2248135;78;20931;-84
2022/01/31 14:31:16;;;;;;;43.53;11.73;;;;;;;1.71;76.12;97575.90;2247532;78;20987;-86
2022/01/31 14:34:17;;;;;;;53.13;14.93;;;;;;;1.66;76.46;97572.75;2248022;78;20985;-84
2022/01/31 14:37:21;;;;;;;53.73;13.70;;;;;;;1.65;76.26;97579.59;2249507;79;20990;-85
2022/01/31 14:40:36;;;;;;;47.67;15.23;;;;;;;1.62;76.27;97577.36;2248738;79;21054;-85
2022/01/31 14:47:15;;;;;;;52.27;16.60;;;;;;;1.59;76.23;97578.15;2245877;79;20991;-81
2022/01/31 14:49:44;;;;;;;56.53;18.27;;;;;;;1.54;76.41;97574.59;2248392;78;21028;-86
2022/01/31 14:52:44;;;;;;;49.33;13.77;;;;;;;1.55;76.24;97582.76;2248087;79;20943;-86
2022/01/31 14:55:44;;;;;;;62.60;15.80;;;;;;;1.50;76.52;97585.63;2248270;79;20897;-86
2022/01/31 14:58:45;;;;;;;57.33;14.80;;;;;;;1.44;76.27;97578.61;2248055;78;20970;-87
2022/01/31 15:01:46;;;;;;;54.60;14.70;;;;;;;1.41;76.34;97581.52;2268058;77;21006;-87
2022/01/31 15:04:46;;;;;;;64.23;15.50;;;;;;;1.38;76.44;97584.87;2288649;78;21007;-84
2022/01/31 15:07:47;;;;;;;59.10;16.37;;;;;;;1.35;76.50;97578.78;2288591;78;20987;-84
2022/01/31 15:10:50;;;;;;;44.47;12.77;;;;;;;1.28;76.46;97572.59;2265735;78;21169;-84
2022/01/31 15:13:55;;;;;;;60.50;18.70;;;;;;;1.25;76.70;97576.37;2288502;78;21115;-84
2022/01/31 15:23:05;;;;;;;59.63;13.53;;;;;;;1.12;76.70;97571.30;2268903;78;21038;-84
2022/01/31 15:26:06;;;;;;;41.57;13.57;;;;;;;1.12;76.88;97562.72;2292126;78;21062;-83
2022/01/31 15:29:07;;;;;;;74.63;19.50;;;;;;;1.12;76.85;97563.59;2291660;78;20940;-82
2022/01/31 15:32:07;;;;;;;82.50;23.77;;;;;;;1.15;76.89;97575.23;2292161;78;20990;-83